Falun, Kansas
Current Conditions -  °F | °C
As of 3:53 AM on Saturday 20 Dec 2014 (Local Time) from KSLN Reporting Station
Haze Haze  
Wind Chill: 25°   Ceiling: Unl
Heat Index: 30°   Visibility: 5mi
Dew Point: 28°   Wind: 5mph
Humidity: 92%   Direction: 180°S
Pressure: 30.12"   Gusts: NA
Location:  38.67°N, 97.76°W
Report Text: KSLN 200953Z AUTO 18004KT 5SM BR CLR M01/M02 A3012 RMK AO2 SLP209 T10111022
Loading
Personal Weather Stations






























Interactive Weather Map New forecast layout! Learn more

10-Day Weather Forecast

Advertisements
Track Severe Weather on mobile